Time;durP1;ratioP1;P1;durP2;ratioP2;P2;SDS_P1;SDS_P2;PMS_P1;PMS_P2;Temp;Humidity;BMP_temperature;BMP_pressure;BME280_temperature;BME280_humidity;BME280_pressure;Samples;Min_cycle;Max_cycle;Signal;HPM_P1;HPM_P2
2022/12/05 00:01:23;;;;;;;15.20;7.68;;;4.00;99.90;;;;;;5118854;28;20050;-67
2022/12/05 00:03:50;;;;;;;12.50;7.70;;;4.00;99.90;;;;;;5116944;28;20173;-66
2022/12/05 00:06:17;;;;;;;14.25;7.85;;;4.00;99.90;;;;;;5116689;28;20082;-67
2022/12/05 00:08:44;;;;;;;14.45;8.32;;;4.00;99.90;;;;;;5118144;28;20043;-68
2022/12/05 00:11:15;;;;;;;11.48;7.13;;;4.00;99.90;;;;;;5115898;28;20050;-67
2022/12/05 00:13:43;;;;;;;14.60;8.23;;;4.00;99.90;;;;;;5118926;28;20075;-68
2022/12/05 00:16:11;;;;;;;14.40;8.25;;;4.10;99.90;;;;;;5117396;28;20052;-68
2022/12/05 00:18:37;;;;;;;12.95;7.43;;;4.10;99.90;;;;;;5115950;28;20086;-68
2022/12/05 00:21:03;;;;;;;15.65;8.82;;;4.10;99.90;;;;;;5119012;28;20036;-67
2022/12/05 00:23:29;;;;;;;13.50;8.48;;;4.10;99.90;;;;;;5115569;28;20146;-68
2022/12/05 00:25:55;;;;;;;14.45;8.18;;;4.10;99.90;;;;;;5119267;28;20074;-68
2022/12/05 00:28:21;;;;;;;14.05;8.35;;;4.10;99.90;;;;;;5116445;28;20051;-68
2022/12/05 00:30:46;;;;;;;13.00;9.15;;;4.40;99.90;;;;;;5118451;28;20067;-67
2022/12/05 00:33:12;;;;;;;16.13;9.25;;;4.10;99.90;;;;;;5098952;28;20165;-67
2022/12/05 00:35:38;;;;;;;13.88;8.70;;;4.10;99.90;;;;;;5117139;28;20135;-68
2022/12/05 00:38:03;;;;;;;15.27;8.60;;;4.10;99.90;;;;;;5117325;28;20043;-67
2022/12/05 00:40:29;;;;;;;15.38;9.77;;;4.10;99.90;;;;;;5114790;28;20058;-67
2022/12/05 00:42:55;;;;;;;14.43;8.70;;;4.20;99.90;;;;;;5117615;28;20046;-67
2022/12/05 00:45:21;;;;;;;17.02;8.98;;;4.20;99.90;;;;;;5115946;28;20140;-67
2022/12/05 00:47:46;;;;;;;18.33;9.43;;;4.10;99.90;;;;;;5099449;28;20497;-67
2022/12/05 00:50:12;;;;;;;16.42;9.02;;;4.10;99.90;;;;;;5116151;28;20506;-67
2022/12/05 00:52:38;;;;;;;15.80;9.00;;;4.30;99.90;;;;;;5117151;28;20040;-68
2022/12/05 00:55:04;;;;;;;15.82;9.10;;;4.10;99.90;;;;;;5118266;28;20057;-67
2022/12/05 00:57:31;;;;;;;17.35;8.82;;;4.20;99.90;;;;;;5097365;28;20039;-68
2022/12/05 00:59:56;;;;;;;16.83;9.30;;;4.20;99.90;;;;;;5117410;28;20048;-68
2022/12/05 01:02:22;;;;;;;14.98;8.75;;;4.20;99.90;;;;;;5102001;28;20070;-68
2022/12/05 01:04:48;;;;;;;14.55;8.82;;;4.20;99.90;;;;;;5116433;28;20067;-68
2022/12/05 01:07:13;;;;;;;16.67;9.07;;;4.30;99.90;;;;;;5116979;28;20060;-68
2022/12/05 01:09:39;;;;;;;14.65;9.18;;;4.20;99.90;;;;;;5118687;28;20047;-69
2022/12/05 01:12:05;;;;;;;17.20;10.00;;;4.20;99.90;;;;;;5117871;28;20068;-68
2022/12/05 01:14:31;;;;;;;14.52;8.93;;;4.20;99.90;;;;;;5116616;28;20039;-69
2022/12/05 01:16:56;;;;;;;15.02;9.63;;;4.20;99.90;;;;;;5115297;28;20636;-68
2022/12/05 01:19:28;;;;;;;14.52;8.82;;;4.20;99.90;;;;;;5113778;28;20130;-68
2022/12/05 01:21:54;;;;;;;13.57;8.25;;;4.30;99.90;;;;;;5117396;28;20043;-69
2022/12/05 01:24:21;;;;;;;17.15;9.75;;;4.20;99.90;;;;;;5116926;28;20044;-67
2022/12/05 01:26:47;;;;;;;14.70;9.13;;;4.30;99.90;;;;;;5116659;28;20112;-70
2022/12/05 01:29:15;;;;;;;16.70;9.30;;;4.30;99.90;;;;;;5116074;28;20523;-68
2022/12/05 01:31:41;;;;;;;19.02;10.25;;;4.30;99.90;;;;;;5116763;28;20039;-68
2022/12/05 01:34:10;;;;;;;16.95;10.00;;;4.30;99.90;;;;;;5116957;28;20048;-68
2022/12/05 01:36:38;;;;;;;16.95;9.52;;;4.30;99.90;;;;;;5115988;28;20040;-68
2022/12/05 01:39:05;;;;;;;18.42;9.85;;;4.30;99.90;;;;;;5117498;28;20531;-68
2022/12/05 01:41:34;;;;;;;18.88;10.45;;;4.30;99.90;;;;;;5115640;28;20074;-69
2022/12/05 01:44:01;;;;;;;18.60;10.48;;;4.30;99.90;;;;;;5115198;28;20047;-68
2022/12/05 01:46:29;;;;;;;16.15;9.45;;;4.30;99.90;;;;;;5115027;28;20043;-67
2022/12/05 01:49:08;;;;;;;15.40;9.38;;;4.30;99.90;;;;;;5115771;28;20051;-68
2022/12/05 01:51:36;;;;;;;18.23;10.85;;;4.30;99.90;;;;;;5117105;28;20039;-69
2022/12/05 01:54:05;;;;;;;18.35;9.32;;;4.30;99.90;;;;;;5116471;28;20431;-68
2022/12/05 01:56:32;;;;;;;20.88;9.70;;;4.30;99.90;;;;;;5099485;28;20102;-68
2022/12/05 01:58:59;;;;;;;18.48;9.85;;;4.30;99.90;;;;;;5116123;28;20104;-67
2022/12/05 02:01:25;;;;;;;15.13;9.38;;;4.30;99.90;;;;;;5116718;28;20069;-68
2022/12/05 02:03:54;;;;;;;17.40;10.20;;;4.30;99.90;;;;;;5099396;28;20044;-67
2022/12/05 02:06:21;;;;;;;15.93;10.02;;;4.40;99.90;;;;;;5116298;28;20096;-68
2022/12/05 02:08:48;;;;;;;16.17;9.82;;;4.30;99.90;;;;;;5099670;28;20058;-68
2022/12/05 02:11:14;;;;;;;17.60;9.82;;;4.50;99.90;;;;;;5114967;28;20285;-68
2022/12/05 02:14:01;;;;;;;14.82;9.40;;;4.40;99.90;;;;;;5110532;28;20044;-68
2022/12/05 02:16:36;;;;;;;18.30;10.38;;;4.40;99.90;;;;;;5032916;28;20049;-67
2022/12/05 02:19:20;;;;;;;16.23;10.15;;;4.40;99.90;;;;;;5032655;28;20133;-67
2022/12/05 02:22:15;;;;;;;18.35;10.05;;;4.40;99.90;;;;;;5026547;28;20045;-66
2022/12/05 02:25:05;;;;;;;18.00;10.98;;;4.40;99.90;;;;;;5032225;28;20049;-68
2022/12/05 02:27:49;;;;;;;18.55;10.52;;;4.40;99.90;;;;;;5032185;28;20056;-68
2022/12/05 02:30:20;;;;;;;18.17;10.02;;;4.40;99.90;;;;;;5035537;28;20041;-67
2022/12/05 02:32:58;;;;;;;17.17;9.65;;;5.00;99.90;;;;;;5035016;28;20484;-69
2022/12/05 02:35:47;;;;;;;16.95;10.38;;;4.40;99.90;;;;;;5037191;28;20045;-68
2022/12/05 02:38:26;;;;;;;20.67;11.20;;;4.40;99.90;;;;;;5066118;28;20085;-68
2022/12/05 02:40:55;;;;;;;18.42;9.95;;;4.40;99.90;;;;;;5035696;28;20081;-66
2022/12/05 02:43:41;;;;;;;17.50;10.60;;;4.40;99.90;;;;;;5036431;28;20053;-68
2022/12/05 02:46:29;;;;;;;16.80;10.10;;;4.50;99.90;;;;;;5034870;28;20096;-68
2022/12/05 02:48:59;;;;;;;17.63;10.63;;;4.50;99.90;;;;;;5036448;28;20292;-67
2022/12/05 02:51:30;;;;;;;18.15;10.57;;;4.50;99.90;;;;;;5036671;28;20049;-68
2022/12/05 02:53:59;;;;;;;18.58;10.75;;;4.50;99.90;;;;;;5035844;28;20143;-68
2022/12/05 02:56:26;;;;;;;18.85;10.77;;;4.50;99.90;;;;;;5037931;28;20049;-67
2022/12/05 02:58:54;;;;;;;19.63;11.18;;;4.60;99.90;;;;;;5036211;28;20045;-67
2022/12/05 03:01:23;;;;;;;17.35;10.13;;;4.60;99.90;;;;;;5037077;28;20077;-67
2022/12/05 03:03:50;;;;;;;18.50;11.00;;;4.50;99.90;;;;;;5035821;28;20129;-68
2022/12/05 03:06:25;;;;;;;17.45;9.60;;;4.50;99.90;;;;;;5035870;28;20056;-67
2022/12/05 03:08:59;;;;;;;19.80;10.35;;;4.60;99.90;;;;;;5036568;28;20049;-68
2022/12/05 03:11:29;;;;;;;17.63;10.25;;;4.60;99.90;;;;;;5035921;28;20073;-67
2022/12/05 03:14:00;;;;;;;19.85;10.32;;;4.60;99.90;;;;;;5012601;28;20034;-67
2022/12/05 03:16:50;;;;;;;20.25;10.95;;;4.60;99.90;;;;;;4995892;28;20043;-67
2022/12/05 03:19:39;;;;;;;19.38;10.60;;;4.80;99.90;;;;;;4995761;28;20065;-67
2022/12/05 03:22:25;;;;;;;17.65;10.23;;;4.60;99.90;;;;;;4980384;28;20054;-67
2022/12/05 03:24:50;;;;;;;17.58;10.20;;;4.60;99.90;;;;;;4997373;28;20385;-67
2022/12/05 03:27:29;;;;;;;18.55;10.65;;;4.60;99.90;;;;;;4995001;28;20046;-67
2022/12/05 03:30:06;;;;;;;18.60;10.05;;;4.60;99.90;;;;;;4998339;28;20057;-67
2022/12/05 03:32:53;;;;;;;18.35;10.23;;;4.60;99.90;;;;;;4994254;28;20047;-67
2022/12/05 03:35:26;;;;;;;17.95;10.48;;;4.70;99.90;;;;;;4997359;28;20110;-67
2022/12/05 03:38:02;;;;;;;20.58;11.13;;;4.60;99.90;;;;;;4997182;28;20064;-68
2022/12/05 03:40:56;;;;;;;19.83;10.13;;;4.60;99.90;;;;;;4994144;28;20054;-68
2022/12/05 03:43:40;;;;;;;18.60;10.57;;;4.70;99.90;;;;;;4995416;28;20537;-68
2022/12/05 03:46:25;;;;;;;22.25;11.13;;;4.70;99.90;;;;;;4995242;28;20050;-67
2022/12/05 03:48:50;;;;;;;19.75;11.23;;;4.70;99.90;;;;;;4993659;28;20084;-67
2022/12/05 03:51:19;;;;;;;18.25;10.30;;;4.70;99.90;;;;;;4997120;28;20038;-66
2022/12/05 03:54:17;;;;;;;19.30;11.27;;;4.70;99.90;;;;;;4993665;28;20058;-67
2022/12/05 03:56:49;;;;;;;18.27;9.55;;;4.80;99.90;;;;;;4996316;28;20058;-67
2022/12/05 03:59:34;;;;;;;17.75;9.95;;;4.80;99.90;;;;;;4963760;28;20069;-67
2022/12/05 04:02:06;;;;;;;18.08;9.57;;;4.80;99.90;;;;;;4994141;28;20080;-67
2022/12/05 04:04:41;;;;;;;20.45;11.32;;;4.80;99.90;;;;;;4996120;28;20058;-67
2022/12/05 04:07:08;;;;;;;16.08;9.35;;;4.80;99.90;;;;;;4995737;28;20081;-67
2022/12/05 04:09:43;;;;;;;19.05;9.90;;;4.80;99.90;;;;;;4997168;28;20072;-67
2022/12/05 04:12:16;;;;;;;17.95;9.68;;;4.80;99.90;;;;;;4995196;28;20049;-67
2022/12/05 04:14:46;;;;;;;17.83;9.85;;;4.80;99.90;;;;;;5054458;28;20078;-67
2022/12/05 04:17:49;;;;;;;18.67;10.30;;;4.80;99.90;;;;;;5101517;28;20109;-67
2022/12/05 04:23:09;;;;;;;16.98;9.45;;;4.80;99.90;;;;;;5118579;28;20588;-67
2022/12/05 04:25:50;;;;;;;16.80;8.73;;;4.80;99.90;;;;;;5101742;28;20663;-68
2022/12/05 04:28:24;;;;;;;15.95;8.82;;;4.80;99.90;;;;;;5118059;28;20422;-68
2022/12/05 04:31:05;;;;;;;15.98;8.60;;;4.90;99.90;;;;;;5119868;28;20051;-67
2022/12/05 04:33:45;;;;;;;15.98;9.68;;;4.80;99.90;;;;;;5119407;28;20054;-67
2022/12/05 04:36:29;;;;;;;15.68;10.60;;;4.80;99.90;;;;;;5116737;28;20115;-68
2022/12/05 04:39:04;;;;;;;14.40;8.57;;;4.80;99.90;;;;;;5119734;28;20045;-67
2022/12/05 04:41:41;;;;;;;17.10;9.57;;;4.90;99.90;;;;;;5116503;28;20112;-67
2022/12/05 04:44:10;;;;;;;16.40;9.75;;;4.80;99.90;;;;;;5117364;28;20059;-69
2022/12/05 04:46:40;;;;;;;14.75;8.40;;;4.80;99.90;;;;;;5100948;28;20064;-67
2022/12/05 04:49:09;;;;;;;14.70;8.25;;;4.90;99.90;;;;;;5117471;28;20036;-67
2022/12/05 04:51:37;;;;;;;13.73;8.25;;;4.90;99.90;;;;;;5117389;28;20040;-68
2022/12/05 04:54:13;;;;;;;15.55;9.63;;;4.90;99.90;;;;;;5116417;28;20185;-67
2022/12/05 04:56:41;;;;;;;15.90;8.40;;;4.90;99.90;;;;;;5118034;28;20054;-68
2022/12/05 04:59:08;;;;;;;15.27;8.38;;;4.90;99.90;;;;;;5117031;28;20522;-67
2022/12/05 05:01:57;;;;;;;14.52;7.85;;;4.90;99.90;;;;;;5117789;28;20096;-67
2022/12/05 05:04:45;;;;;;;15.90;9.35;;;4.90;99.90;;;;;;5118933;28;20103;-67
2022/12/05 05:07:12;;;;;;;16.38;8.77;;;5.00;99.90;;;;;;5117209;28;20411;-68
2022/12/05 05:09:39;;;;;;;14.05;8.57;;;4.90;99.90;;;;;;5118697;28;20035;-67
2022/12/05 05:12:06;;;;;;;16.73;8.75;;;4.90;99.90;;;;;;5099844;28;20127;-67
2022/12/05 05:14:31;;;;;;;13.63;7.80;;;4.90;99.90;;;;;;5082039;28;20048;-67
2022/12/05 05:16:57;;;;;;;14.18;8.18;;;4.90;99.90;;;;;;5035557;28;20042;-68
2022/12/05 05:19:23;;;;;;;12.63;8.07;;;4.90;99.90;;;;;;5032986;28;20061;-67
2022/12/05 05:21:50;;;;;;;13.65;8.02;;;4.90;99.90;;;;;;5035632;28;20057;-68
2022/12/05 05:24:17;;;;;;;15.50;8.98;;;4.90;99.90;;;;;;5033559;28;20114;-67
2022/12/05 05:26:44;;;;;;;12.70;7.50;;;5.00;99.90;;;;;;5034885;28;20073;-67
2022/12/05 05:29:11;;;;;;;12.38;7.07;;;4.90;99.90;;;;;;5034758;28;20048;-67
2022/12/05 05:31:39;;;;;;;14.57;7.70;;;5.00;99.90;;;;;;5032480;28;20132;-67
2022/12/05 05:34:05;;;;;;;12.15;7.75;;;4.90;99.90;;;;;;5035697;28;20497;-68
2022/12/05 05:36:31;;;;;;;11.95;7.28;;;4.90;99.90;;;;;;5033369;28;20049;-67
2022/12/05 05:38:59;;;;;;;15.82;8.07;;;4.90;99.90;;;;;;5035077;28;20049;-67
2022/12/05 05:41:30;;;;;;;13.93;7.93;;;4.90;99.90;;;;;;5033437;28;20124;-66
2022/12/05 05:43:57;;;;;;;14.02;7.85;;;4.90;99.90;;;;;;5034717;28;20064;-67
2022/12/05 05:46:25;;;;;;;13.20;8.10;;;4.90;99.90;;;;;;5034408;28;20106;-67
2022/12/05 05:48:51;;;;;;;14.48;7.97;;;4.90;99.90;;;;;;5032066;28;20128;-67
2022/12/05 05:51:18;;;;;;;13.00;8.32;;;4.90;99.90;;;;;;5035536;28;20080;-67
2022/12/05 05:53:45;;;;;;;14.40;8.73;;;4.90;99.90;;;;;;5031633;28;20033;-67
2022/12/05 05:56:13;;;;;;;14.27;8.50;;;5.10;99.90;;;;;;5035010;28;20564;-67
2022/12/05 05:58:39;;;;;;;13.27;7.22;;;4.90;99.90;;;;;;5033007;28;20069;-67
2022/12/05 06:01:08;;;;;;;14.25;7.68;;;5.00;99.90;;;;;;5033214;28;20512;-66
2022/12/05 06:03:34;;;;;;;11.85;7.22;;;4.90;99.90;;;;;;5032005;28;20048;-67
2022/12/05 06:06:03;;;;;;;11.93;7.13;;;5.00;99.90;;;;;;5030531;28;20045;-67
2022/12/05 06:08:33;;;;;;;12.45;7.20;;;5.00;99.90;;;;;;5034605;28;20063;-66
2022/12/05 06:10:59;;;;;;;13.88;7.47;;;4.90;99.90;;;;;;5032672;28;20053;-67
2022/12/05 06:13:25;;;;;;;13.15;7.57;;;5.00;99.90;;;;;;5034534;28;20057;-67
2022/12/05 06:15:51;;;;;;;10.93;6.85;;;5.00;99.90;;;;;;4993102;28;20034;-67
2022/12/05 06:18:17;;;;;;;13.57;7.93;;;5.00;99.90;;;;;;4994302;28;20053;-67
2022/12/05 06:20:54;;;;;;;11.77;7.03;;;5.00;99.90;;;;;;4995015;28;20050;-67
2022/12/05 06:23:21;;;;;;;12.50;6.85;;;5.00;99.90;;;;;;4993325;28;20070;-67
2022/12/05 06:25:51;;;;;;;11.95;6.60;;;5.00;99.90;;;;;;4995470;28;20039;-67
2022/12/05 06:28:18;;;;;;;11.13;6.95;;;5.00;99.90;;;;;;4993303;28;20466;-67
2022/12/05 06:30:43;;;;;;;14.05;8.20;;;5.00;99.90;;;;;;4995263;28;20599;-67
2022/12/05 06:33:10;;;;;;;13.35;6.75;;;5.00;99.90;;;;;;4994164;28;20047;-67
2022/12/05 06:35:36;;;;;;;12.27;7.82;;;5.00;99.90;;;;;;4977067;28;20038;-68
2022/12/05 06:38:02;;;;;;;10.55;6.63;;;5.00;99.90;;;;;;4994887;28;20547;-67
2022/12/05 06:40:28;;;;;;;11.93;6.40;;;5.00;99.90;;;;;;4991906;28;20042;-67
2022/12/05 06:42:54;;;;;;;9.80;6.00;;;5.00;99.90;;;;;;4994069;28;20046;-67
2022/12/05 06:45:20;;;;;;;9.73;5.78;;;5.00;99.90;;;;;;4975566;28;20059;-67
2022/12/05 06:47:45;;;;;;;10.18;6.28;;;5.00;99.90;;;;;;4994574;28;20035;-67
2022/12/05 06:50:11;;;;;;;10.32;5.78;;;5.00;99.90;;;;;;4993484;28;20038;-67
2022/12/05 06:52:37;;;;;;;10.32;6.43;;;5.00;99.90;;;;;;4994217;28;20101;-67
2022/12/05 06:55:03;;;;;;;10.07;6.43;;;5.00;99.90;;;;;;4993731;28;20096;-67
2022/12/05 06:57:29;;;;;;;8.52;5.30;;;5.00;99.90;;;;;;4993194;28;20055;-67
2022/12/05 07:01:37;;;;;;;9.13;5.15;;;5.00;99.90;;;;;;4995450;28;20057;-68
2022/12/05 07:02:41;;;;;;;8.40;5.18;;;5.00;99.90;;;;;;4993118;28;20057;-67
2022/12/05 07:05:11;;;;;;;7.20;4.60;;;5.00;99.90;;;;;;4993292;28;20121;-67
2022/12/05 07:07:37;;;;;;;7.05;4.85;;;5.00;99.90;;;;;;4994357;28;20042;-67
2022/12/05 07:10:04;;;;;;;5.65;4.03;;;5.00;99.90;;;;;;4993700;28;20070;-66
2022/12/05 07:12:32;;;;;;;6.78;4.22;;;5.00;99.90;;;;;;4994816;28;20039;-66
2022/12/05 07:14:58;;;;;;;5.32;3.70;;;5.00;99.90;;;;;;5067731;28;20057;-67
2022/12/05 07:17:24;;;;;;;5.05;3.40;;;5.00;99.90;;;;;;5120650;28;20051;-67
2022/12/05 07:19:51;;;;;;;4.68;3.03;;;5.00;99.90;;;;;;5119209;28;20052;-66
2022/12/05 07:22:20;;;;;;;5.70;3.53;;;5.00;99.90;;;;;;5121137;28;20059;-66
2022/12/05 07:24:46;;;;;;;4.88;3.20;;;5.10;99.90;;;;;;5119044;28;20041;-66
2022/12/05 07:27:14;;;;;;;4.15;2.80;;;5.10;99.90;;;;;;5119631;28;20044;-66
2022/12/05 07:29:40;;;;;;;4.50;2.78;;;5.10;99.90;;;;;;5121182;28;20058;-67
2022/12/05 07:32:07;;;;;;;4.32;2.70;;;5.10;99.90;;;;;;5118633;28;20043;-66
2022/12/05 07:34:32;;;;;;;3.92;2.40;;;5.10;99.90;;;;;;5121090;28;20050;-66
2022/12/05 07:36:59;;;;;;;4.20;2.72;;;5.30;99.90;;;;;;5118893;28;20043;-66
2022/12/05 07:39:25;;;;;;;3.88;2.50;;;5.10;99.90;;;;;;5120377;28;20036;-66
2022/12/05 07:41:51;;;;;;;5.28;3.28;;;5.10;99.90;;;;;;5119947;28;20050;-65
2022/12/05 07:44:17;;;;;;;4.82;2.70;;;5.20;99.90;;;;;;5000976;28;20050;-68
2022/12/05 07:46:42;;;;;;;4.28;2.55;;;5.10;99.90;;;;;;4980151;28;20086;-66
2022/12/05 07:49:08;;;;;;;4.70;2.65;;;5.10;99.90;;;;;;4995397;28;20054;-66
2022/12/05 07:51:34;;;;;;;5.28;2.72;;;5.10;99.90;;;;;;4997114;28;20518;-66
2022/12/05 07:54:00;;;;;;;4.93;2.60;;;5.20;99.90;;;;;;4995347;28;20072;-66
2022/12/05 07:56:26;;;;;;;3.42;2.42;;;5.10;99.90;;;;;;4995272;28;20075;-66
2022/12/05 07:58:53;;;;;;;4.45;2.63;;;5.10;99.90;;;;;;4994122;28;20053;-66
2022/12/05 08:01:24;;;;;;;3.63;2.60;;;5.10;99.90;;;;;;4996237;28;20553;-66
2022/12/05 08:03:52;;;;;;;4.00;2.63;;;5.10;99.90;;;;;;4997048;28;20133;-66
2022/12/05 08:06:24;;;;;;;4.00;3.00;;;5.20;99.90;;;;;;4993384;28;20054;-66
2022/12/05 08:08:50;;;;;;;4.90;3.30;;;5.20;99.90;;;;;;4995657;28;20050;-66
2022/12/05 08:11:19;;;;;;;4.05;2.80;;;5.30;99.90;;;;;;4993752;28;20061;-66
2022/12/05 08:13:44;;;;;;;3.88;2.67;;;5.20;99.90;;;;;;4998731;28;20047;-68
2022/12/05 08:16:13;;;;;;;3.85;2.47;;;5.20;99.90;;;;;;5012155;28;20046;-65
2022/12/05 08:18:40;;;;;;;3.75;2.75;;;5.20;99.90;;;;;;5013349;28;20058;-66
2022/12/05 08:21:12;;;;;;;6.80;3.05;;;5.30;99.90;;;;;;5011384;28;20050;-66
2022/12/05 08:23:38;;;;;;;4.50;2.47;;;5.20;99.90;;;;;;4997733;28;20489;-66
2022/12/05 08:26:14;;;;;;;3.92;2.50;;;5.20;99.90;;;;;;5002643;28;20076;-66
2022/12/05 08:28:40;;;;;;;3.47;2.55;;;5.20;99.90;;;;;;5014525;28;20094;-65
2022/12/05 08:31:19;;;;;;;5.10;2.70;;;5.20;99.90;;;;;;5003009;28;20050;-66
2022/12/05 08:33:45;;;;;;;4.45;2.80;;;5.20;99.90;;;;;;5006379;28;20054;-67
2022/12/05 08:36:14;;;;;;;5.13;2.97;;;5.20;99.90;;;;;;5004141;28;20085;-69
2022/12/05 08:38:40;;;;;;;3.88;2.55;;;5.30;99.90;;;;;;5004804;28;20091;-68
2022/12/05 08:41:09;;;;;;;4.63;2.85;;;5.20;99.90;;;;;;5001189;28;20097;-68
2022/12/05 08:43:35;;;;;;;4.20;2.83;;;5.20;99.90;;;;;;5000916;28;20042;-68
2022/12/05 08:46:02;;;;;;;6.15;2.83;;;5.20;99.90;;;;;;5004115;28;20066;-68
2022/12/05 08:48:29;;;;;;;5.13;3.10;;;5.20;99.90;;;;;;5004003;28;20043;-68
2022/12/05 08:50:55;;;;;;;3.95;2.70;;;5.20;99.90;;;;;;5002731;28;20046;-68
2022/12/05 08:53:21;;;;;;;4.95;2.97;;;5.20;99.90;;;;;;5002044;28;20057;-67
2022/12/05 08:55:47;;;;;;;3.88;2.80;;;5.20;99.90;;;;;;5014576;28;20093;-68
2022/12/05 08:58:13;;;;;;;4.80;3.30;;;5.30;99.90;;;;;;5000788;28;20046;-67
2022/12/05 09:00:40;;;;;;;4.72;3.00;;;5.20;99.90;;;;;;5003358;28;20119;-69
2022/12/05 09:03:05;;;;;;;5.55;3.08;;;5.20;99.90;;;;;;5004251;28;20046;-67
2022/12/05 09:05:31;;;;;;;6.78;3.22;;;5.20;99.90;;;;;;5011771;28;20078;-68
2022/12/05 09:07:58;;;;;;;4.72;3.30;;;5.20;99.90;;;;;;5015719;28;20111;-67
2022/12/05 09:10:25;;;;;;;7.32;3.47;;;5.30;99.90;;;;;;5012216;28;20046;-68
2022/12/05 09:12:51;;;;;;;4.25;3.00;;;5.30;99.90;;;;;;5013934;28;20074;-68
2022/12/05 09:15:17;;;;;;;5.20;3.28;;;5.20;99.90;;;;;;5011998;28;20042;-68
2022/12/05 09:17:43;;;;;;;4.95;3.53;;;5.30;99.90;;;;;;5005139;28;20046;-68
2022/12/05 09:20:12;;;;;;;4.55;3.42;;;5.40;99.90;;;;;;5007129;28;20080;-67
2022/12/05 09:22:41;;;;;;;5.65;3.17;;;5.20;99.90;;;;;;4997340;28;20049;-67
2022/12/05 09:25:08;;;;;;;4.97;3.45;;;5.20;99.90;;;;;;5003800;28;20038;-66
2022/12/05 09:27:33;;;;;;;5.53;3.15;;;5.20;99.90;;;;;;5003063;28;20048;-67
2022/12/05 09:29:59;;;;;;;5.13;3.40;;;5.20;99.90;;;;;;5009772;28;20046;-67
2022/12/05 09:32:25;;;;;;;5.22;3.58;;;5.20;99.90;;;;;;5001323;28;20135;-68
2022/12/05 09:34:50;;;;;;;4.82;3.05;;;5.20;99.90;;;;;;5015612;28;20052;-69
2022/12/05 09:37:17;;;;;;;5.30;3.42;;;5.20;99.90;;;;;;5002257;28;20046;-68
2022/12/05 09:39:46;;;;;;;4.90;3.75;;;5.20;99.90;;;;;;5003927;28;20106;-68
2022/12/05 09:42:17;;;;;;;5.72;3.97;;;5.20;99.90;;;;;;5001265;28;20042;-67
2022/12/05 09:44:58;;;;;;;4.22;3.05;;;5.20;99.90;;;;;;4997685;28;20547;-67
2022/12/05 09:47:26;;;;;;;6.28;3.80;;;5.20;99.90;;;;;;5001814;28;20049;-69
2022/12/05 09:50:13;;;;;;;5.13;3.40;;;5.20;99.90;;;;;;4986321;28;20089;-69
2022/12/05 09:52:59;;;;;;;4.68;3.38;;;5.20;99.90;;;;;;5005211;28;20046;-67
2022/12/05 09:55:29;;;;;;;6.10;3.60;;;5.20;99.90;;;;;;4987032;28;20048;-69
2022/12/05 09:57:58;;;;;;;5.63;3.80;;;5.10;99.90;;;;;;5008030;28;20111;-69
2022/12/05 10:00:27;;;;;;;6.28;4.03;;;5.20;99.90;;;;;;5003779;28;20050;-68
2022/12/05 10:03:36;;;;;;;7.03;4.07;;;5.20;99.90;;;;;;4996895;28;20045;-68
2022/12/05 10:06:27;;;;;;;7.88;4.32;;;5.20;99.90;;;;;;5015785;28;20054;-68
2022/12/05 10:09:05;;;;;;;5.53;3.78;;;5.20;99.90;;;;;;4995192;28;20046;-67
2022/12/05 10:11:42;;;;;;;6.65;3.50;;;5.20;99.90;;;;;;4993634;28;20052;-67
2022/12/05 10:14:13;;;;;;;;;;;5.20;99.90;;;;;;5026813;28;20040;-67
2022/12/05 10:16:50;;;;;;;6.05;3.28;;;5.20;99.90;;;;;;5099553;28;20352;-67
2022/12/05 10:19:27;;;;;;;6.63;4.45;;;5.30;99.90;;;;;;5115570;28;20060;-68
2022/12/05 10:22:15;;;;;;;6.90;3.63;;;5.10;99.90;;;;;;5118084;28;20040;-67
2022/12/05 10:24:48;;;;;;;6.22;3.70;;;5.10;99.90;;;;;;5117274;28;20044;-68
2022/12/05 10:27:27;;;;;;;7.05;4.22;;;5.20;99.90;;;;;;5115054;28;20051;-68
2022/12/05 10:30:16;;;;;;;5.38;3.67;;;5.30;99.90;;;;;;5118288;28;20094;-67
2022/12/05 10:32:58;;;;;;;7.85;4.13;;;5.20;99.90;;;;;;5116141;28;20052;-68
2022/12/05 10:35:27;;;;;;;6.43;4.00;;;5.20;99.90;;;;;;5117248;28;20589;-68
2022/12/05 10:38:06;;;;;;;7.63;4.28;;;5.20;99.90;;;;;;5117942;28;20050;-68
2022/12/05 10:40:39;;;;;;;6.10;3.70;;;5.20;99.90;;;;;;5114755;28;20062;-67
2022/12/05 10:43:07;;;;;;;8.05;3.78;;;5.20;99.90;;;;;;5118329;28;20499;-68
2022/12/05 10:45:45;;;;;;;6.80;4.18;;;5.20;99.90;;;;;;5116722;28;20044;-65
2022/12/05 10:48:13;;;;;;;8.25;4.55;;;5.20;99.90;;;;;;5115442;28;20126;-64
2022/12/05 10:50:41;;;;;;;5.88;3.92;;;5.20;99.90;;;;;;5120332;28;20056;-66
2022/12/05 10:53:12;;;;;;;6.28;4.32;;;5.20;99.90;;;;;;5118618;28;20433;-65
2022/12/05 10:55:43;;;;;;;6.20;3.78;;;5.20;99.90;;;;;;5120583;28;20040;-64
2022/12/05 10:58:15;;;;;;;8.10;4.43;;;5.20;99.90;;;;;;5119664;28;20067;-64
2022/12/05 11:00:46;;;;;;;7.15;4.43;;;5.20;99.90;;;;;;5121257;28;20079;-67
2022/12/05 11:03:34;;;;;;;6.05;4.00;;;5.30;99.90;;;;;;5119310;28;20081;-66
2022/12/05 11:06:13;;;;;;;6.45;3.88;;;5.20;99.90;;;;;;5119710;28;20056;-67
2022/12/05 11:08:39;;;;;;;6.93;4.10;;;5.30;99.90;;;;;;5061738;28;20081;-67
2022/12/05 11:11:16;;;;;;;7.32;3.85;;;5.20;99.90;;;;;;4994590;28;20038;-66
2022/12/05 11:13:59;;;;;;;5.75;3.63;;;5.30;99.90;;;;;;5015693;28;20053;-66
2022/12/05 11:16:35;;;;;;;6.35;3.50;;;5.20;99.90;;;;;;5015752;28;20060;-67
2022/12/05 11:19:16;;;;;;;6.32;3.22;;;5.20;99.90;;;;;;5013349;28;20109;-67
2022/12/05 11:21:42;;;;;;;5.75;3.65;;;5.20;99.90;;;;;;5017023;28;20111;-66
2022/12/05 11:24:38;;;;;;;5.85;3.40;;;5.20;99.90;;;;;;5012856;28;20061;-66
2022/12/05 11:27:16;;;;;;;8.45;4.25;;;5.30;99.90;;;;;;5008265;28;20073;-67
2022/12/05 11:29:44;;;;;;;7.70;3.75;;;5.20;99.90;;;;;;5005981;28;20052;-66
2022/12/05 11:32:25;;;;;;;6.30;4.05;;;5.20;99.90;;;;;;5004926;28;20084;-66
2022/12/05 11:35:06;;;;;;;6.25;3.47;;;5.20;99.90;;;;;;4998230;28;20046;-67
2022/12/05 11:38:04;;;;;;;5.15;3.15;;;5.20;99.90;;;;;;5015162;28;20076;-67
2022/12/05 11:40:35;;;;;;;;;;;5.20;99.90;;;;;;5013623;28;20042;-67
2022/12/05 11:43:25;;;;;;;6.32;3.78;;;5.20;99.90;;;;;;5016732;28;19971;-67
2022/12/05 11:46:17;;;;;;;5.68;3.63;;;5.10;99.90;;;;;;5014869;28;20041;-66
2022/12/05 11:48:49;;;;;;;6.03;3.35;;;5.20;99.90;;;;;;4996512;28;20113;-66
2022/12/05 11:51:52;;;;;;;5.40;3.63;;;5.20;99.90;;;;;;5016838;28;20097;-67
2022/12/05 11:54:53;;;;;;;6.38;3.45;;;5.20;99.90;;;;;;5014847;28;20120;-66
2022/12/05 11:57:37;;;;;;;4.75;2.95;;;5.20;99.90;;;;;;5014635;28;20077;-66
2022/12/05 12:00:07;;;;;;;4.85;2.80;;;5.30;99.90;;;;;;5015300;28;20050;-67
2022/12/05 12:02:57;;;;;;;5.50;3.15;;;5.30;99.90;;;;;;5014641;28;20054;-67
2022/12/05 12:05:44;;;;;;;5.95;3.80;;;5.30;99.90;;;;;;5014120;28;20083;-67
2022/12/05 12:08:38;;;;;;;4.95;3.28;;;5.30;99.90;;;;;;5016768;28;20087;-67
2022/12/05 12:11:09;;;;;;;5.45;2.85;;;5.40;99.90;;;;;;5000190;28;20057;-66
2022/12/05 12:13:54;;;;;;;4.72;2.85;;;5.30;99.90;;;;;;5032241;28;20619;-66
2022/12/05 12:16:49;;;;;;;4.45;2.60;;;5.30;99.90;;;;;;5005588;28;20050;-66
2022/12/05 12:19:37;;;;;;;4.20;2.72;;;5.40;99.90;;;;;;5006348;28;20593;-66
2022/12/05 12:22:05;;;;;;;4.97;2.75;;;5.30;99.90;;;;;;5012699;28;20142;-66
2022/12/05 12:24:46;;;;;;;4.72;2.40;;;5.30;99.90;;;;;;5013934;28;20057;-67
2022/12/05 12:27:15;;;;;;;4.32;2.55;;;5.30;99.90;;;;;;5013713;28;20500;-67
2022/12/05 12:29:58;;;;;;;5.22;3.42;;;5.30;99.90;;;;;;5015221;28;20223;-66
2022/12/05 12:32:50;;;;;;;3.08;2.13;;;5.30;99.90;;;;;;5012658;28;20050;-66
2022/12/05 12:35:15;;;;;;;5.25;2.70;;;5.30;99.90;;;;;;5014768;28;20046;-67
2022/12/05 12:37:47;;;;;;;3.78;2.53;;;5.30;99.90;;;;;;5014300;28;20080;-67
2022/12/05 12:40:13;;;;;;;5.10;2.30;;;5.30;99.90;;;;;;5013070;28;20057;-66
2022/12/05 12:42:45;;;;;;;3.13;2.10;;;5.30;99.90;;;;;;5014068;28;20091;-66
2022/12/05 12:45:29;;;;;;;3.78;2.42;;;5.30;99.90;;;;;;5012227;28;20042;-66
2022/12/05 12:48:29;;;;;;;4.10;2.38;;;5.30;99.90;;;;;;4996599;28;20072;-67
2022/12/05 12:50:59;;;;;;;4.85;2.60;;;5.40;99.90;;;;;;5012985;28;20042;-67
2022/12/05 12:53:49;;;;;;;4.45;2.40;;;5.40;99.90;;;;;;5010958;28;20042;-67
2022/12/05 12:56:22;;;;;;;4.53;2.60;;;5.30;99.90;;;;;;5014585;28;20077;-67
2022/12/05 12:59:05;;;;;;;4.18;2.00;;;5.30;99.90;;;;;;5012053;28;20050;-67
2022/12/05 13:02:08;;;;;;;3.95;2.30;;;5.30;99.90;;;;;;5012451;28;20046;-66
2022/12/05 13:04:43;;;;;;;3.60;1.95;;;5.30;99.90;;;;;;5002380;28;20058;-66
2022/12/05 13:07:18;;;;;;;3.30;1.80;;;5.30;99.90;;;;;;5011553;28;20058;-68
2022/12/05 13:09:55;;;;;;;2.88;1.80;;;5.40;99.90;;;;;;5012598;28;20049;-66
2022/12/05 13:12:29;;;;;;;3.28;2.15;;;5.30;99.90;;;;;;5013757;28;20076;-66
2022/12/05 13:15:01;;;;;;;4.13;2.17;;;5.40;99.90;;;;;;4993361;28;20050;-66
2022/12/05 13:17:30;;;;;;;3.55;1.67;;;5.40;99.90;;;;;;5014332;28;20072;-66
2022/12/05 13:19:57;;;;;;;3.92;2.10;;;5.40;99.90;;;;;;5011303;28;20069;-66